Darstellungsparameter: Aktuell verwendete Einstellungen:
Skalierung der Graphiken ... ?
xyx+y,   Skalierungsfaktor:      Skalierung: Modus: x, Faktor: 1
Darstellungszeitraum ... ?
Vom - - bis: - -   Zeitraum: 19.01.2021 - 19.01.2021
Min/Max/Avg-Anzeige ... ?
Zeige MMA aktuell
Zeige MMA Monat
Zeige MMA alles
Zeige --A aktuell
Zeige --A Monat
Zeige --A alles
Keine MMA-Anzeige
MMA:
Average (ber die Originaldaten)
MMA-Basis: 19.01.2021 - 19.01.2021
Quicknavigation für Darstellung... ?
Tage:      1T, 2T, 3T, 5T -1T -2T -3T -5T +1T +2T +3T +5T
Wochen: 1W, 2W, 3W -1W -2W -3W +1W +2W +3W
Monate: 1M, 3M, 6M -1M -3M -6M +1M +3M +6M
Jahre:    1J, 3J, 5J, 10J -1J -3J -5J -10J +1J +3J +5J +10J
Nutze für die Darstellung ... ?
Originaldaten oder Mittelwerte auf ...
Stundenbasis Tagesbasis Wochenbasis
Monatsbasis Jahresbasis      Datenbasis: Original-Daten
Darstellen als:
Statistik (Auto) Statistik J:M      Darstellung:

Der gewünschte Datumsbereich war nicht gültig/verfügbar und wurde korrigiert....
Das angegebene Enddatum (24.04.2025 23:59:59) liegt in der Zukunft.
Das angegebene Startdatum (18.04.2025 00:00:00) liegt in der Zukunft.


Zur Graphik,    zurück zur Übersicht aller Sensoren.
 
Tabellarische Datenbersicht: ?
 
Sensor: Nr:Datum:Temp:Abs-Feuchte:Windchill:Wind:
Aussen-T/F 1 19-01-2021 01:00:00 5.2 C 5.92 g/m*3 2.34 C 12.9 km/h
2 19-01-2021 01:05:00 5.2 C 5.92 g/m*3 2.34 C 12.9 km/h
3 19-01-2021 01:10:00 5.2 C 5.92 g/m*3 2.07 C 14.5 km/h
4 19-01-2021 01:15:00 5.2 C 5.92 g/m*3 2.96 C 9.7 km/h
5 19-01-2021 01:20:00 5.1 C 5.88 g/m*3 1.71 C 16.1 km/h
6 19-01-2021 01:25:00 5.1 C 5.88 g/m*3 1.71 C 16.1 km/h
7 19-01-2021 01:30:00 5 C 5.84 g/m*3 1.36 C 17.7 km/h
8 19-01-2021 01:35:00 4.9 C 5.81 g/m*3 0.83 C 20.9 km/h
9 19-01-2021 01:40:00 4.9 C 5.74 g/m*3 1.46 C 16.1 km/h
10 19-01-2021 01:45:00 4.8 C 5.7 g/m*3 1.11 C 17.7 km/h
11 19-01-2021 01:50:00 4.8 C 5.7 g/m*3 1.11 C 17.7 km/h
12 19-01-2021 01:55:00 4.8 C 5.7 g/m*3 0.52 C 22.5 km/h
13 19-01-2021 02:00:00 4.8 C 5.7 g/m*3 0.9 C 19.3 km/h
14 19-01-2021 02:05:00 4.8 C 5.7 g/m*3 1.11 C 17.7 km/h
15 19-01-2021 02:10:00 4.7 C 5.66 g/m*3 1.46 C 14.5 km/h
16 19-01-2021 02:15:00 4.7 C 5.66 g/m*3 0.78 C 19.3 km/h
17 19-01-2021 02:20:00 4.7 C 5.66 g/m*3 1.46 C 14.5 km/h
18 19-01-2021 02:25:00 4.7 C 5.66 g/m*3 2.03 C 11.3 km/h
19 19-01-2021 02:30:00 4.6 C 5.56 g/m*3 1.09 C 16.1 km/h
20 19-01-2021 02:35:00 4.6 C 5.62 g/m*3 2.64 C 8.1 km/h
21 19-01-2021 02:40:00 4.6 C 5.62 g/m*3 1.61 C 12.9 km/h
22 19-01-2021 02:45:00 4.6 C 5.62 g/m*3 1.61 C 12.9 km/h
23 19-01-2021 02:50:00 4.6 C 5.62 g/m*3 2.25 C 9.7 km/h
24 19-01-2021 02:55:00 4.6 C 5.62 g/m*3 2.25 C 9.7 km/h
25 19-01-2021 03:00:00 4.6 C 5.56 g/m*3 1.91 C 11.3 km/h
Sensor: Nr:Datum:Temp:Abs-Feuchte:Windchill:Wind:
Aussen-T/F 26 19-01-2021 03:05:00 4.6 C 5.56 g/m*3 2.64 C 8.1 km/h
27 19-01-2021 03:10:00 4.6 C 5.62 g/m*3 4.6 C 3.2 km/h
28 19-01-2021 03:15:00 4.5 C 5.52 g/m*3 3.02 C 6.4 km/h
29 19-01-2021 03:20:00 4.5 C 5.52 g/m*3 2.52 C 8.1 km/h
30 19-01-2021 03:25:00 4.5 C 5.52 g/m*3 2.52 C 8.1 km/h
31 19-01-2021 03:30:00 4.5 C 5.52 g/m*3 4.5 C 1.6 km/h
32 19-01-2021 03:35:00 4.4 C 5.55 g/m*3 1.67 C 11.3 km/h
33 19-01-2021 03:40:00 4.4 C 5.55 g/m*3 4.4 C 3.2 km/h
34 19-01-2021 03:45:00 4.4 C 5.55 g/m*3 4.4 C 0 km/h
35 19-01-2021 03:50:00 4.4 C 5.55 g/m*3 4.4 C 3.2 km/h
36 19-01-2021 03:55:00 4.3 C 5.51 g/m*3 4.3 C 3.2 km/h
37 19-01-2021 04:00:00 4.3 C 5.58 g/m*3 4.3 C 1.6 km/h
38 19-01-2021 04:05:00 4.2 C 5.54 g/m*3 4.2 C 4.8 km/h
39 19-01-2021 04:10:00 4.2 C 5.54 g/m*3 4.2 C 1.6 km/h
40 19-01-2021 04:15:00 4.2 C 5.54 g/m*3 2.67 C 6.4 km/h
41 19-01-2021 04:20:00 4.2 C 5.54 g/m*3 4.2 C 0 km/h
42 19-01-2021 04:25:00 4.1 C 5.5 g/m*3 4.1 C 4.8 km/h
43 19-01-2021 04:30:00 4.1 C 5.5 g/m*3 4.1 C 1.6 km/h
44 19-01-2021 04:35:00 4.1 C 5.5 g/m*3 2.05 C 8.1 km/h
45 19-01-2021 04:40:00 4.2 C 5.48 g/m*3 1.77 C 9.7 km/h
46 19-01-2021 04:45:00 4.3 C 5.51 g/m*3 1.89 C 9.7 km/h
47 19-01-2021 04:50:00 4.3 C 5.45 g/m*3 4.3 C 3.2 km/h
48 19-01-2021 04:55:00 4.4 C 5.48 g/m*3 2.4 C 8.1 km/h
49 19-01-2021 05:00:00 4.4 C 5.42 g/m*3 4.4 C 4.8 km/h
50 19-01-2021 05:05:00 4.4 C 5.42 g/m*3 2.01 C 9.7 km/h
Sensor: Nr:Datum:Temp:Abs-Feuchte:Windchill:Wind:
Aussen-T/F 51 19-01-2021 05:10:00 4.4 C 5.42 g/m*3 2.9 C 6.4 km/h
52 19-01-2021 05:15:00 4.3 C 5.32 g/m*3 1.24 C 12.9 km/h
53 19-01-2021 05:20:00 4.4 C 5.35 g/m*3 1.09 C 14.5 km/h
54 19-01-2021 05:25:00 4.5 C 5.39 g/m*3 1.48 C 12.9 km/h
55 19-01-2021 05:30:00 4.4 C 5.35 g/m*3 2.9 C 6.4 km/h
56 19-01-2021 05:35:00 4.4 C 5.29 g/m*3 0.61 C 17.7 km/h
57 19-01-2021 05:40:00 4.6 C 5.36 g/m*3 1.91 C 11.3 km/h
58 19-01-2021 05:45:00 4.6 C 5.36 g/m*3 2.25 C 9.7 km/h
59 19-01-2021 05:50:00 4.6 C 5.36 g/m*3 0.45 C 20.9 km/h
60 19-01-2021 05:55:00 4.7 C 5.4 g/m*3 1.73 C 12.9 km/h
61 19-01-2021 06:00:00 4.8 C 5.36 g/m*3 1.11 C 17.7 km/h
62 19-01-2021 06:05:00 4.9 C 5.33 g/m*3 0.83 C 20.9 km/h
63 19-01-2021 06:10:00 5.1 C 5.4 g/m*3 0.74 C 24.1 km/h
64 19-01-2021 06:15:00 5.2 C 5.44 g/m*3 1.61 C 17.7 km/h
65 19-01-2021 06:20:00 5.2 C 5.44 g/m*3 2.96 C 9.7 km/h
66 19-01-2021 06:25:00 5.2 C 5.44 g/m*3 1.03 C 22.5 km/h
67 19-01-2021 06:30:00 5.2 C 5.37 g/m*3 2.07 C 14.5 km/h
68 19-01-2021 06:35:00 5.3 C 5.41 g/m*3 1.96 C 16.1 km/h
69 19-01-2021 06:40:00 5.3 C 5.41 g/m*3 2.2 C 14.5 km/h
70 19-01-2021 06:45:00 5.3 C 5.41 g/m*3 2.46 C 12.9 km/h
71 19-01-2021 06:50:00 5.4 C 5.51 g/m*3 2.58 C 12.9 km/h
72 19-01-2021 06:55:00 5.4 C 5.51 g/m*3 2.87 C 11.3 km/h
73 19-01-2021 07:00:00 5.4 C 5.51 g/m*3 2.58 C 12.9 km/h
74 19-01-2021 07:05:00 5.4 C 5.51 g/m*3 1.29 C 22.5 km/h
75 19-01-2021 07:10:00 5.4 C 5.51 g/m*3 1.29 C 22.5 km/h
Sensor: Nr:Datum:Temp:Abs-Feuchte:Windchill:Wind:
Aussen-T/F 76 19-01-2021 07:15:00 5.4 C 5.51 g/m*3 1.86 C 17.7 km/h
77 19-01-2021 07:20:00 5.4 C 5.51 g/m*3 2.32 C 14.5 km/h
78 19-01-2021 07:25:00 5.4 C 5.58 g/m*3 2.08 C 16.1 km/h
79 19-01-2021 07:30:00 5.4 C 5.58 g/m*3 1.47 C 20.9 km/h
80 19-01-2021 07:35:00 5.4 C 5.51 g/m*3 1.47 C 20.9 km/h
81 19-01-2021 07:40:00 5.5 C 5.62 g/m*3 2.2 C 16.1 km/h
82 19-01-2021 07:45:00 5.5 C 5.55 g/m*3 1.25 C 24.1 km/h
83 19-01-2021 07:50:00 5.5 C 5.62 g/m*3 1.25 C 24.1 km/h
84 19-01-2021 07:55:00 5.5 C 5.62 g/m*3 1.42 C 22.5 km/h
85 19-01-2021 08:00:00 5.5 C 5.62 g/m*3 1.59 C 20.9 km/h
86 19-01-2021 08:05:00 5.5 C 5.62 g/m*3 1.09 C 25.7 km/h
87 19-01-2021 08:10:00 5.5 C 5.62 g/m*3 0.93 C 27.4 km/h
88 19-01-2021 08:15:00 5.4 C 5.58 g/m*3 1.86 C 17.7 km/h
89 19-01-2021 08:20:00 5.4 C 5.58 g/m*3 0.8 C 27.4 km/h
90 19-01-2021 08:25:00 5.5 C 5.62 g/m*3 1.59 C 20.9 km/h
91 19-01-2021 08:30:00 5.4 C 5.58 g/m*3 0.8 C 27.4 km/h
92 19-01-2021 08:35:00 5.4 C 5.58 g/m*3 1.86 C 17.7 km/h
93 19-01-2021 08:40:00 5.4 C 5.58 g/m*3 1.47 C 20.9 km/h
94 19-01-2021 08:45:00 5.4 C 5.58 g/m*3 1.66 C 19.3 km/h
95 19-01-2021 08:50:00 5.4 C 5.58 g/m*3 1.12 C 24.1 km/h
96 19-01-2021 08:55:00 5.4 C 5.58 g/m*3 1.47 C 20.9 km/h
97 19-01-2021 09:00:00 5.4 C 5.58 g/m*3 0.96 C 25.7 km/h
98 19-01-2021 09:05:00 5.4 C 5.58 g/m*3 1.29 C 22.5 km/h
99 19-01-2021 09:10:00 5.3 C 5.54 g/m*3 1.16 C 22.5 km/h
100 19-01-2021 09:15:00 5.3 C 5.54 g/m*3 1.96 C 16.1 km/h
Sensor: Nr:Datum:Temp:Abs-Feuchte:Windchill:Wind:
Aussen-T/F 101 19-01-2021 09:20:00 5.3 C 5.54 g/m*3 0.83 C 25.7 km/h
102 19-01-2021 09:25:00 5.3 C 5.54 g/m*3 1.16 C 22.5 km/h
103 19-01-2021 09:30:00 5.3 C 5.54 g/m*3 0.99 C 24.1 km/h
104 19-01-2021 09:35:00 5.3 C 5.54 g/m*3 1.53 C 19.3 km/h
105 19-01-2021 09:40:00 5.3 C 5.54 g/m*3 0.83 C 25.7 km/h
106 19-01-2021 09:45:00 5.3 C 5.48 g/m*3 0.39 C 30.6 km/h
107 19-01-2021 09:50:00 5.3 C 5.48 g/m*3 1.53 C 19.3 km/h
108 19-01-2021 09:55:00 5.3 C 5.48 g/m*3 0.67 C 27.4 km/h
109 19-01-2021 10:00:00 5.4 C 5.51 g/m*3 1.12 C 24.1 km/h
110 19-01-2021 10:05:00 5.4 C 5.51 g/m*3 0.66 C 29 km/h
111 19-01-2021 10:10:00 5.4 C 5.51 g/m*3 0.96 C 25.7 km/h
112 19-01-2021 10:15:00 5.4 C 5.51 g/m*3 0.52 C 30.6 km/h
113 19-01-2021 10:20:00 5.3 C 5.54 g/m*3 0.83 C 25.7 km/h
114 19-01-2021 10:25:00 5.3 C 5.54 g/m*3 0.99 C 24.1 km/h
115 19-01-2021 10:30:00 5.3 C 5.61 g/m*3 1.74 C 17.7 km/h
116 19-01-2021 10:35:00 5.2 C 5.58 g/m*3 -0.12 C 35.4 km/h
117 19-01-2021 10:40:00 5.1 C 5.68 g/m*3 -0.25 C 35.4 km/h
118 19-01-2021 10:45:00 4.9 C 5.67 g/m*3 0.65 C 22.5 km/h
119 19-01-2021 10:50:00 4.8 C 5.7 g/m*3 0.02 C 27.4 km/h
120 19-01-2021 10:55:00 4.6 C 5.69 g/m*3 -0.23 C 27.4 km/h
121 19-01-2021 11:00:00 4.6 C 5.76 g/m*3 -0.38 C 29 km/h
122 19-01-2021 11:05:00 4.4 C 5.75 g/m*3 -0.78 C 30.6 km/h
123 19-01-2021 11:10:00 4.4 C 5.75 g/m*3 -0.33 C 25.7 km/h
124 19-01-2021 11:15:00 4.3 C 5.77 g/m*3 -0.92 C 30.6 km/h
125 19-01-2021 11:20:00 4.3 C 5.77 g/m*3 0.07 C 20.9 km/h
Sensor: Nr:Datum:Temp:Abs-Feuchte:Windchill:Wind:
Aussen-T/F 126 19-01-2021 11:25:00 4.3 C 5.77 g/m*3 -0.29 C 24.1 km/h
127 19-01-2021 11:30:00 4.3 C 5.71 g/m*3 -0.77 C 29 km/h
128 19-01-2021 11:35:00 4.4 C 5.75 g/m*3 -0.49 C 27.4 km/h
129 19-01-2021 11:40:00 4.4 C 5.75 g/m*3 -0.16 C 24.1 km/h
130 19-01-2021 11:45:00 4.4 C 5.75 g/m*3 -0.33 C 25.7 km/h
131 19-01-2021 11:50:00 4.5 C 5.78 g/m*3 -0.51 C 29 km/h
132 19-01-2021 11:55:00 4.6 C 5.76 g/m*3 -0.38 C 29 km/h
133 19-01-2021 12:00:00 4.6 C 5.76 g/m*3 -0.52 C 30.6 km/h
134 19-01-2021 12:05:00 4.7 C 5.8 g/m*3 -0.9 C 37 km/h
135 19-01-2021 12:10:00 4.7 C 5.8 g/m*3 -1.01 C 38.6 km/h
136 19-01-2021 12:15:00 4.7 C 5.8 g/m*3 -0.1 C 27.4 km/h
137 19-01-2021 12:20:00 4.8 C 5.83 g/m*3 0.02 C 27.4 km/h
138 19-01-2021 12:25:00 4.8 C 5.83 g/m*3 -0.4 C 32.2 km/h
139 19-01-2021 12:30:00 4.8 C 5.83 g/m*3 -0.12 C 29 km/h
140 19-01-2021 12:35:00 4.8 C 5.83 g/m*3 0.02 C 27.4 km/h
141 19-01-2021 12:40:00 4.9 C 5.87 g/m*3 0.01 C 29 km/h
142 19-01-2021 12:45:00 4.9 C 5.87 g/m*3 -0.39 C 33.8 km/h
143 19-01-2021 12:50:00 4.9 C 5.87 g/m*3 0.01 C 29 km/h
144 19-01-2021 12:55:00 4.9 C 5.87 g/m*3 0.65 C 22.5 km/h
145 19-01-2021 13:00:00 4.9 C 5.87 g/m*3 0.32 C 25.7 km/h
146 19-01-2021 13:05:00 5 C 5.91 g/m*3 0.14 C 29 km/h
147 19-01-2021 13:10:00 5.1 C 5.95 g/m*3 0.27 C 29 km/h
148 19-01-2021 13:15:00 5.1 C 5.95 g/m*3 0.58 C 25.7 km/h
149 19-01-2021 13:20:00 5.1 C 5.95 g/m*3 0.41 C 27.4 km/h
150 19-01-2021 13:25:00 5.2 C 5.99 g/m*3 0.4 C 29 km/h
Sensor: Nr:Datum:Temp:Abs-Feuchte:Windchill:Wind:
Aussen-T/F 151 19-01-2021 13:30:00 5.2 C 5.99 g/m*3 1.21 C 20.9 km/h
152 19-01-2021 13:35:00 5.2 C 5.99 g/m*3 0.4 C 29 km/h
153 19-01-2021 13:40:00 5.2 C 5.99 g/m*3 0.13 C 32.2 km/h
154 19-01-2021 13:45:00 5.3 C 6.03 g/m*3 0.83 C 25.7 km/h
155 19-01-2021 13:50:00 5.3 C 6.1 g/m*3 0.53 C 29 km/h
156 19-01-2021 13:55:00 5.3 C 6.1 g/m*3 1.16 C 22.5 km/h
157 19-01-2021 14:00:00 5.3 C 6.1 g/m*3 0.67 C 27.4 km/h
158 19-01-2021 14:05:00 5.3 C 6.1 g/m*3 0.67 C 27.4 km/h
159 19-01-2021 14:10:00 5.4 C 6.14 g/m*3 1.12 C 24.1 km/h
160 19-01-2021 14:15:00 5.4 C 6.14 g/m*3 0.96 C 25.7 km/h
161 19-01-2021 14:20:00 5.5 C 6.11 g/m*3 0.79 C 29 km/h
162 19-01-2021 14:25:00 5.6 C 6.15 g/m*3 1.54 C 22.5 km/h
163 19-01-2021 14:30:00 5.6 C 6.15 g/m*3 1.72 C 20.9 km/h
164 19-01-2021 14:35:00 5.7 C 6.19 g/m*3 2.03 C 19.3 km/h
165 19-01-2021 14:40:00 5.7 C 6.19 g/m*3 1.5 C 24.1 km/h
166 19-01-2021 14:45:00 5.8 C 6.23 g/m*3 1.32 C 27.4 km/h
167 19-01-2021 14:50:00 5.8 C 6.23 g/m*3 1.63 C 24.1 km/h
168 19-01-2021 14:55:00 5.9 C 6.27 g/m*3 2.1 C 20.9 km/h
169 19-01-2021 15:00:00 5.9 C 6.27 g/m*3 2.48 C 17.7 km/h
170 19-01-2021 15:05:00 6 C 6.31 g/m*3 2.23 C 20.9 km/h
171 19-01-2021 15:10:00 6 C 6.31 g/m*3 1.06 C 33.8 km/h
172 19-01-2021 15:15:00 6.1 C 6.36 g/m*3 2.35 C 20.9 km/h
173 19-01-2021 15:20:00 6.2 C 6.32 g/m*3 0.98 C 38.6 km/h
174 19-01-2021 15:25:00 6.2 C 6.32 g/m*3 3.3 C 14.5 km/h
175 19-01-2021 15:30:00 6.2 C 6.32 g/m*3 2.15 C 24.1 km/h
Sensor: Nr:Datum:Temp:Abs-Feuchte:Windchill:Wind:
Aussen-T/F 176 19-01-2021 15:35:00 6.2 C 6.32 g/m*3 2.66 C 19.3 km/h
177 19-01-2021 15:40:00 6.1 C 6.28 g/m*3 2.54 C 19.3 km/h
178 19-01-2021 15:45:00 6 C 6.31 g/m*3 2.41 C 19.3 km/h
179 19-01-2021 15:50:00 5.9 C 6.27 g/m*3 1.45 C 27.4 km/h
180 19-01-2021 15:55:00 5.9 C 6.27 g/m*3 1.93 C 22.5 km/h
181 19-01-2021 16:00:00 5.9 C 6.27 g/m*3 2.48 C 17.7 km/h
182 19-01-2021 16:05:00 5.8 C 6.23 g/m*3 1.18 C 29 km/h
183 19-01-2021 16:10:00 5.8 C 6.3 g/m*3 1.8 C 22.5 km/h
184 19-01-2021 16:15:00 5.7 C 6.26 g/m*3 0.91 C 30.6 km/h
185 19-01-2021 16:20:00 5.7 C 6.33 g/m*3 2.03 C 19.3 km/h
186 19-01-2021 16:25:00 5.6 C 6.29 g/m*3 1.06 C 27.4 km/h
187 19-01-2021 16:30:00 5.6 C 6.29 g/m*3 1.91 C 19.3 km/h
188 19-01-2021 16:35:00 5.6 C 6.29 g/m*3 1.72 C 20.9 km/h
189 19-01-2021 16:40:00 5.5 C 6.32 g/m*3 1.78 C 19.3 km/h
190 19-01-2021 16:45:00 5.5 C 6.32 g/m*3 0.93 C 27.4 km/h
191 19-01-2021 16:50:00 5.4 C 6.28 g/m*3 1.66 C 19.3 km/h
192 19-01-2021 16:55:00 5.4 C 6.28 g/m*3 1.47 C 20.9 km/h
193 19-01-2021 17:00:00 5.4 C 6.28 g/m*3 1.47 C 20.9 km/h
194 19-01-2021 17:05:00 5.4 C 6.28 g/m*3 2.08 C 16.1 km/h
195 19-01-2021 17:10:00 5.4 C 6.28 g/m*3 1.47 C 20.9 km/h
196 19-01-2021 17:15:00 5.4 C 6.28 g/m*3 2.08 C 16.1 km/h
197 19-01-2021 17:20:00 5.4 C 6.28 g/m*3 1.47 C 20.9 km/h
198 19-01-2021 17:25:00 5.4 C 6.28 g/m*3 1.66 C 19.3 km/h
199 19-01-2021 17:30:00 5.4 C 6.28 g/m*3 1.47 C 20.9 km/h
200 19-01-2021 17:35:00 5.4 C 6.28 g/m*3 1.47 C 20.9 km/h
Sensor: Nr:Datum:Temp:Abs-Feuchte:Windchill:Wind:
Aussen-T/F 201 19-01-2021 17:40:00 5.4 C 6.28 g/m*3 1.29 C 22.5 km/h
202 19-01-2021 17:45:00 5.4 C 6.28 g/m*3 1.86 C 17.7 km/h
203 19-01-2021 17:50:00 5.3 C 6.24 g/m*3 1.16 C 22.5 km/h
204 19-01-2021 17:55:00 5.3 C 6.24 g/m*3 0.99 C 24.1 km/h
205 19-01-2021 18:00:00 5.4 C 6.28 g/m*3 0.66 C 29 km/h
206 19-01-2021 18:05:00 5.4 C 6.28 g/m*3 0.96 C 25.7 km/h
207 19-01-2021 18:10:00 5.3 C 6.24 g/m*3 1.53 C 19.3 km/h
208 19-01-2021 18:15:00 5.3 C 6.24 g/m*3 1.16 C 22.5 km/h
209 19-01-2021 18:20:00 5.2 C 6.13 g/m*3 0.7 C 25.7 km/h
210 19-01-2021 18:25:00 5.2 C 6.13 g/m*3 1.61 C 17.7 km/h
211 19-01-2021 18:30:00 5.2 C 6.13 g/m*3 2.34 C 12.9 km/h
212 19-01-2021 18:35:00 5.2 C 6.2 g/m*3 1.61 C 17.7 km/h
213 19-01-2021 18:40:00 5.2 C 6.2 g/m*3 2.07 C 14.5 km/h
214 19-01-2021 18:45:00 5.3 C 6.24 g/m*3 0.99 C 24.1 km/h
215 19-01-2021 18:50:00 5.4 C 6.21 g/m*3 2.87 C 11.3 km/h
216 19-01-2021 18:55:00 5.4 C 6.21 g/m*3 2.87 C 11.3 km/h
217 19-01-2021 19:00:00 5.4 C 6.21 g/m*3 2.32 C 14.5 km/h
218 19-01-2021 19:05:00 5.5 C 6.25 g/m*3 2.7 C 12.9 km/h
219 19-01-2021 19:10:00 5.5 C 6.25 g/m*3 1.99 C 17.7 km/h
220 19-01-2021 19:15:00 5.5 C 6.25 g/m*3 2.2 C 16.1 km/h
221 19-01-2021 19:20:00 5.6 C 6.29 g/m*3 1.38 C 24.1 km/h
222 19-01-2021 19:25:00 5.6 C 6.29 g/m*3 2.11 C 17.7 km/h
223 19-01-2021 19:30:00 5.6 C 6.36 g/m*3 2.11 C 17.7 km/h
224 19-01-2021 19:35:00 5.6 C 6.36 g/m*3 1.91 C 19.3 km/h
225 19-01-2021 19:40:00 5.6 C 6.36 g/m*3 1.38 C 24.1 km/h
Sensor: Nr:Datum:Temp:Abs-Feuchte:Windchill:Wind:
Aussen-T/F 226 19-01-2021 19:45:00 5.6 C 6.36 g/m*3 2.57 C 14.5 km/h
227 19-01-2021 19:50:00 5.6 C 6.36 g/m*3 2.11 C 17.7 km/h
228 19-01-2021 19:55:00 5.6 C 6.29 g/m*3 1.38 C 24.1 km/h
229 19-01-2021 20:00:00 5.6 C 6.29 g/m*3 1.72 C 20.9 km/h
230 19-01-2021 20:05:00 5.6 C 6.29 g/m*3 2.33 C 16.1 km/h
231 19-01-2021 20:10:00 5.6 C 6.22 g/m*3 2.11 C 17.7 km/h
232 19-01-2021 20:15:00 5.7 C 6.26 g/m*3 1.85 C 20.9 km/h
233 19-01-2021 20:20:00 5.7 C 6.19 g/m*3 1.85 C 20.9 km/h
234 19-01-2021 20:25:00 5.7 C 6.19 g/m*3 2.69 C 14.5 km/h
235 19-01-2021 20:30:00 5.7 C 6.12 g/m*3 2.03 C 19.3 km/h
236 19-01-2021 20:35:00 5.6 C 6.08 g/m*3 1.38 C 24.1 km/h
237 19-01-2021 20:40:00 5.7 C 6.12 g/m*3 1.85 C 20.9 km/h
238 19-01-2021 20:45:00 5.7 C 6.05 g/m*3 1.35 C 25.7 km/h
239 19-01-2021 20:50:00 5.6 C 6.01 g/m*3 2.57 C 14.5 km/h
240 19-01-2021 20:55:00 5.6 C 6.01 g/m*3 3.44 C 9.7 km/h
241 19-01-2021 21:00:00 5.4 C 5.93 g/m*3 2.58 C 12.9 km/h
242 19-01-2021 21:05:00 5.4 C 5.93 g/m*3 2.87 C 11.3 km/h
243 19-01-2021 21:10:00 5.4 C 5.93 g/m*3 2.32 C 14.5 km/h
244 19-01-2021 21:15:00 5.4 C 5.86 g/m*3 2.58 C 12.9 km/h
245 19-01-2021 21:20:00 5.3 C 5.82 g/m*3 2.2 C 14.5 km/h
246 19-01-2021 21:25:00 5.3 C 5.82 g/m*3 2.75 C 11.3 km/h
247 19-01-2021 21:30:00 5.3 C 5.82 g/m*3 2.46 C 12.9 km/h
248 19-01-2021 21:35:00 5.2 C 5.78 g/m*3 2.96 C 9.7 km/h
249 19-01-2021 21:40:00 5.1 C 5.75 g/m*3 3.23 C 8.1 km/h
250 19-01-2021 21:45:00 5 C 5.71 g/m*3 3.11 C 8.1 km/h
Sensor: Nr:Datum:Temp:Abs-Feuchte:Windchill:Wind:
Aussen-T/F 251 19-01-2021 21:50:00 4.9 C 5.67 g/m*3 2.99 C 8.1 km/h
252 19-01-2021 21:55:00 4.8 C 5.63 g/m*3 2.15 C 11.3 km/h
253 19-01-2021 22:00:00 4.8 C 5.63 g/m*3 2.15 C 11.3 km/h
254 19-01-2021 22:05:00 4.9 C 5.67 g/m*3 2.99 C 8.1 km/h
255 19-01-2021 22:10:00 4.9 C 5.67 g/m*3 2.99 C 8.1 km/h
256 19-01-2021 22:15:00 4.8 C 5.57 g/m*3 3.36 C 6.4 km/h
257 19-01-2021 22:20:00 4.8 C 5.57 g/m*3 4.8 C 4.8 km/h
258 19-01-2021 22:25:00 4.8 C 5.57 g/m*3 4.8 C 3.2 km/h
259 19-01-2021 22:30:00 4.7 C 5.53 g/m*3 4.7 C 4.8 km/h

Legende:
   Min
   Max


Maximal/Minimal-Werte vom 19.01.2021 - 19.01.2021

Sensor Min Max Avg
Temp
(Aussen-T/F)
4.1 °C
19-01-2021  04:25:00
6.2 °C
19-01-2021  15:20:00
5.14 °C
Abs-Feuchte
(Aussen-T/F)
5.29 g/m*3
19-01-2021  05:35:00
6.36 g/m*3
19-01-2021  15:15:00
5.81 g/m*3
Windchill
(Aussen-T/F)
-1.01 C
19-01-2021  12:10:00
4.8 C
19-01-2021  22:20:00
1.64 C

Die Daten stammen von einer Davis Vantage Pro 2 Wetter-Station und werden unter Linux mit der Software wview2wettercgi und aufbereitet. Alle Angaben erfolgen ohne Gewähr für ihre Vollständigkeit oder Richtigkeit.
Kontakt: Rainer Krienke krienke@uni-koblenz.de . Meine Webseiten an der Uni Koblenz oder privat.
Version: $Revision: 0.78 $